x

Molasses Reef, Fl (mlrf1) Weather Station

1:00am - Fri 19th Sep 2014 All times are EDT. -4 hours from GMT.

  • Wind
    3mph, 5mph gusts
  • Sea Temp 85°f
  • Air Temp 82°f
  • Sea Pressure 1013.9mb
  • Molasses Reef, Fl
  • Molasses Reef, Fl

More Historic Weather Station data

Upgrade to MSW Pro to gain access to the past 30 days of data for over 8000 Wavebouys and Weather Stations around the globe.

Join Pro

Comparision Forecast

View Surf forecast
   
Fri 09/19 1:00am 3 5 mph 1013.9mb 85f 82f
12:00am 3 5 mph 1013.9mb 85f 82f
Thu 09/18 11:00pm 5 6 mph 1013.8mb 85f 82f
10:00pm 5 6 mph 1013.8mb 85f 82f
9:00pm 6
mph
1013.4mb 85f 82f
8:00pm 5 6 mph 1012.9mb 85f 82f
7:00pm  -  1 mph 1012.7mb 85f 81f
6:00pm 6 7 mph 1012.1mb 85f 81f
5:00pm 8 9 mph 1012.8mb 85f 81f
4:00pm 6 7 mph 1012.8mb 85f 81f
3:00pm 6 7 mph 1013.4mb 85f 81f
2:00pm 1 2 mph 1013.4mb 85f 81f
1:00pm 3 5 mph 1014mb 85f 81f
12:00pm 3 5 mph 1014.7mb 85f 80f
11:00am 5 6 mph 1014.9mb 85f 81f
10:00am 3 5 mph 1014.4mb 85f 82f
9:00am 2 3 mph 1013.9mb 85f 82f
8:00am 2 3 mph 1013.4mb 85f 82f
7:00am 2
mph
1012.9mb 85f 82f
6:00am 3 5 mph 1012.4mb 85f 82f
5:00am 1 2 mph 1012.1mb 85f 81f
4:00am 2
mph
1012.2mb 85f 81f
3:00am 2
mph
1012.6mb 85f 81f
2:00am  -  mph 1013.5mb 85f 79f
1:00am 6 7 mph 1014.4mb 85f 79f
12:00am 6 7 mph 1014.6mb 85f 81f
Wed 09/17 11:00pm 6 7 mph 1014.7mb 86f 83f
10:00pm 6
mph
1014.4mb 86f 83f
9:00pm 5 6 mph 1013.8mb 86f 82f
8:00pm 7 8 mph 1013.1mb 86f 83f
7:00pm 6 7 mph 1012.8mb 86f 83f
6:00pm 7 8 mph 1012.5mb 86f 83f
5:00pm 6 7 mph 1012.8mb 86f 83f
4:00pm 6 7 mph 1012.7mb 86f 83f
3:00pm 5 7 mph 1013.1mb 86f 83f
2:00pm 5
mph
1013.9mb 86f 83f
1:00pm 3
mph
1014.8mb 86f 83f
12:00pm 2 3 mph 1015.5mb 86f 83f
11:00am  -  mph 1015.8mb 86f 84f
10:00am 2 3 mph 1015.4mb 86f 83f
9:00am  -  mph 1015.3mb 85f 82f
8:00am 2 5 mph 1015mb 85f 81f
7:00am  -  1 mph 1014.4mb 85f 81f
6:00am  -  1 mph 1014.1mb 85f 82f
5:00am  -  mph 1014mb 85f 82f
4:00am 1 2 mph 1014.2mb 85f 82f
3:00am 2 3 mph 1014.5mb 85f 82f
2:00am 2
mph
1015.1mb 85f 82f
1:00am 1 2 mph 1015.8mb 86f 81f
12:00am  -  2 mph 1016.6mb 86f 81f
Tue 09/16 11:00pm 6 7 mph 1017mb 86f 81f
10:00pm 5 6 mph 1017mb 86f 81f
9:00pm 2 3 mph 1016.4mb 86f 83f
8:00pm 3 6 mph 1015.9mb 86f 83f
7:00pm 3 5 mph 1015.6mb 86f 83f
6:00pm 5 6 mph 1015.5mb 86f 83f
5:00pm 9 10 mph 1015.2mb 86f 83f
4:00pm 6 7 mph 1015.8mb 86f 84f
3:00pm 6 7 mph 1016.5mb 86f 83f
2:00pm 6 7 mph 1017mb 86f 83f
1:00pm 7 8 mph 1017.5mb 86f 83f
12:00pm 6 7 mph 1018.1mb 86f 83f
11:00am 6 8 mph 1018.3mb 86f 83f
10:00am 8
mph
1018.3mb 85f 83f
9:00am 7 8 mph 1018.8mb 85f 83f
8:00am 7 9 mph 1018.5mb 85f 83f
7:00am 7 8 mph 1018.4mb 85f 83f
6:00am 8
mph
1018mb 85f 83f
5:00am 9 10 mph 1017.7mb 85f 83f
4:00am 10 13 mph 1017.6mb 85f 83f
3:00am 10 11 mph 1018.3mb 85f 83f
2:00am 11
mph
1018.7mb 85f 83f
1:00am 10 13 mph 1019.4mb 85f 83f
12:00am 10 11 mph 1019.8mb 85f 83f
Mon 09/15 11:00pm 10 11 mph 1020.3mb 85f 83f
10:00pm 9 11 mph 1020.1mb 85f 83f
9:00pm 11 13 mph 1019.6mb 85f 83f
8:00pm 11 13 mph 1018.9mb 86f 83f
7:00pm 13
mph
1018.3mb 86f 83f
6:00pm 11 13 mph 1018.5mb 86f 84f
5:00pm 9 10 mph 1018.5mb 86f 83f
4:00pm 9
mph
1018.9mb 86f 84f
3:00pm 10 11 mph 1019.2mb 86f 84f
2:00pm 10 11 mph 1019.8mb 86f 84f
1:00pm 10 11 mph 1020.2mb 85f 83f
12:00pm 13 14 mph 1020.8mb 85f 84f
11:00am 14
mph
1020.8mb 85f 84f
10:00am 11 13 mph 1020.6mb 85f 84f
9:00am 13 14 mph 1020.4mb 85f 84f
8:00am 8 9 mph 1020mb 85f 84f
7:00am 10 11 mph 1019.6mb 85f 83f